createdAt,value
2022-10-07T00:00:25.598Z,1016.57
2022-10-07T00:01:25.576Z,1016.5
2022-10-07T00:02:25.560Z,1016.5
2022-10-07T00:03:25.574Z,1016.56
2022-10-07T00:04:25.540Z,1016.55
2022-10-07T00:05:25.543Z,1016.57
2022-10-07T00:06:25.535Z,1016.52
2022-10-07T00:07:25.504Z,1016.54
2022-10-07T00:08:25.505Z,1016.49
2022-10-07T00:09:25.501Z,1016.51
2022-10-07T00:10:25.515Z,1016.49
2022-10-07T00:11:25.528Z,1016.49
2022-10-07T00:12:25.464Z,1016.5
2022-10-07T00:13:25.539Z,1016.53
2022-10-07T00:14:25.436Z,1016.47
2022-10-07T00:15:25.466Z,1016.49
2022-10-07T00:16:25.424Z,1016.42
2022-10-07T00:17:25.405Z,1016.42
2022-10-07T00:18:25.407Z,1016.42
2022-10-07T00:19:25.377Z,1016.41
2022-10-07T00:20:25.374Z,1016.34
2022-10-07T00:21:25.367Z,1016.41
2022-10-07T00:22:25.346Z,1016.37
2022-10-07T00:23:25.340Z,1016.37
2022-10-07T00:24:25.350Z,1016.39
2022-10-07T00:25:25.322Z,1016.41
2022-10-07T00:26:25.309Z,1016.38
2022-10-07T00:27:25.318Z,1016.36
2022-10-07T00:28:25.284Z,1016.32
2022-10-07T00:29:25.284Z,1016.32
2022-10-07T00:30:25.265Z,1016.33
2022-10-07T00:31:25.257Z,1016.3
2022-10-07T00:32:25.248Z,1016.29
2022-10-07T00:33:25.244Z,1016.32
2022-10-07T00:34:25.223Z,1016.26
2022-10-07T00:35:25.211Z,1016.23
2022-10-07T00:36:25.243Z,1016.26
2022-10-07T00:37:25.185Z,1016.23
2022-10-07T00:38:25.185Z,1016.33
2022-10-07T00:39:25.164Z,1016.27
2022-10-07T00:40:25.136Z,1016.26
2022-10-07T00:41:25.153Z,1016.24
2022-10-07T00:42:25.120Z,1016.23
2022-10-07T00:43:25.118Z,1016.21
2022-10-07T00:44:25.120Z,1016.22
2022-10-07T00:45:25.095Z,1016.18
2022-10-07T00:46:25.088Z,1016.18
2022-10-07T00:47:25.078Z,1016.19
2022-10-07T00:48:25.055Z,1016.18
2022-10-07T00:49:25.069Z,1016.19
2022-10-07T00:50:25.047Z,1016.17
2022-10-07T00:51:25.039Z,1016.18
2022-10-07T00:52:25.033Z,1016.18
2022-10-07T00:53:25.031Z,1016.16
2022-10-07T00:54:24.999Z,1016.15
2022-10-07T00:55:24.994Z,1016.07
2022-10-07T00:56:24.978Z,1016.06
2022-10-07T00:57:24.964Z,1016.1
2022-10-07T00:58:24.953Z,1016.02
2022-10-07T00:59:24.939Z,1016.03
2022-10-07T01:00:24.931Z,1016.07
2022-10-07T01:01:24.919Z,1016.01
2022-10-07T01:02:24.917Z,1016
2022-10-07T01:03:24.956Z,1015.99
2022-10-07T01:04:24.885Z,1016.02
2022-10-07T01:05:24.876Z,1015.98
2022-10-07T01:06:24.874Z,1015.89
2022-10-07T01:07:24.872Z,1015.88
2022-10-07T01:08:24.843Z,1015.86
2022-10-07T01:09:24.840Z,1015.91
2022-10-07T01:10:24.825Z,1015.89
2022-10-07T01:11:24.813Z,1015.87
2022-10-07T01:12:24.802Z,1015.85
2022-10-07T01:13:24.863Z,1015.89
2022-10-07T01:14:24.782Z,1015.83
2022-10-07T01:15:24.774Z,1015.88
2022-10-07T01:16:24.778Z,1015.84
2022-10-07T01:17:24.753Z,1015.83
2022-10-07T01:18:24.740Z,1015.82
2022-10-07T01:19:24.747Z,1015.79
2022-10-07T01:20:24.721Z,1015.8
2022-10-07T01:21:24.713Z,1015.86
2022-10-07T01:22:24.695Z,1015.74
2022-10-07T01:23:24.688Z,1015.78
2022-10-07T01:24:24.699Z,1015.74
2022-10-07T01:25:24.695Z,1015.74
2022-10-07T01:26:24.658Z,1015.69
2022-10-07T01:27:24.660Z,1015.66
2022-10-07T01:28:24.639Z,1015.65
2022-10-07T01:29:24.636Z,1015.63
2022-10-07T01:30:24.618Z,1015.67
2022-10-07T01:31:24.618Z,1015.6
2022-10-07T01:32:24.597Z,1015.58
2022-10-07T01:33:24.588Z,1015.55
2022-10-07T01:34:24.569Z,1015.52
2022-10-07T01:35:24.564Z,1015.57
2022-10-07T01:36:24.556Z,1015.55
2022-10-07T01:37:24.538Z,1015.56
2022-10-07T01:38:24.532Z,1015.5
2022-10-07T01:39:24.552Z,1015.48
2022-10-07T01:40:24.506Z,1015.49
2022-10-07T01:41:24.505Z,1015.45
2022-10-07T01:42:24.489Z,1015.48
2022-10-07T01:43:24.486Z,1015.44
2022-10-07T01:44:24.571Z,1015.44
2022-10-07T01:45:24.474Z,1015.39
2022-10-07T01:46:24.452Z,1015.41
2022-10-07T01:47:24.442Z,1015.4
2022-10-07T01:48:24.437Z,1015.41
2022-10-07T01:49:24.415Z,1015.39
2022-10-07T01:50:24.421Z,1015.4
2022-10-07T01:51:24.393Z,1015.41
2022-10-07T01:52:24.386Z,1015.4
2022-10-07T01:53:24.375Z,1015.42
2022-10-07T01:54:24.357Z,1015.44
2022-10-07T01:55:24.359Z,1015.41
2022-10-07T01:56:24.345Z,1015.37
2022-10-07T01:57:24.342Z,1015.4
2022-10-07T01:58:24.322Z,1015.36
2022-10-07T01:59:24.310Z,1015.35
2022-10-07T02:00:24.313Z,1015.34
2022-10-07T02:01:24.295Z,1015.29
2022-10-07T02:02:24.289Z,1015.3
2022-10-07T02:03:24.268Z,1015.36
2022-10-07T02:04:24.268Z,1015.31
2022-10-07T02:05:24.258Z,1015.29
2022-10-07T02:06:24.253Z,1015.34
2022-10-07T02:07:24.244Z,1015.31
2022-10-07T02:08:24.225Z,1015.31
2022-10-07T02:09:24.200Z,1015.34
2022-10-07T02:10:24.200Z,1015.27
2022-10-07T02:11:24.196Z,1015.28
2022-10-07T02:12:24.172Z,1015.24
2022-10-07T02:13:24.174Z,1015.27
2022-10-07T02:14:24.155Z,1015.27
2022-10-07T02:15:24.139Z,1015.26
2022-10-07T02:16:24.131Z,1015.23
2022-10-07T02:17:24.123Z,1015.24
2022-10-07T02:18:24.104Z,1015.17
2022-10-07T02:19:24.103Z,1015.16
2022-10-07T02:20:24.085Z,1015.12
2022-10-07T02:21:24.116Z,1015.11
2022-10-07T02:22:24.075Z,1015.11
2022-10-07T02:23:24.056Z,1015.08
2022-10-07T02:24:24.042Z,1015.11
2022-10-07T02:25:24.054Z,1015.13
2022-10-07T02:26:24.024Z,1015.05
2022-10-07T02:27:24.025Z,1015.08
2022-10-07T02:28:24.008Z,1015.07
2022-10-07T02:29:23.988Z,1015.02
2022-10-07T02:30:23.980Z,1015.04
2022-10-07T02:31:23.990Z,1015.04
2022-10-07T02:32:23.969Z,1015.01
2022-10-07T02:33:23.947Z,1015.07
2022-10-07T02:34:23.934Z,1014.93
2022-10-07T02:35:23.925Z,1015.01
2022-10-07T02:36:23.930Z,1015.03
2022-10-07T02:37:23.920Z,1014.98
2022-10-07T02:38:23.901Z,1015
2022-10-07T02:39:23.882Z,1015.02
2022-10-07T02:40:23.886Z,1014.97
2022-10-07T02:41:23.871Z,1014.94
2022-10-07T02:42:23.869Z,1014.91
2022-10-07T02:43:23.843Z,1014.91
2022-10-07T02:44:23.835Z,1014.88
2022-10-07T02:45:23.828Z,1014.94
2022-10-07T02:46:23.807Z,1014.89
2022-10-07T02:47:23.800Z,1014.87
2022-10-07T02:48:23.805Z,1014.85
2022-10-07T02:49:23.777Z,1014.88
2022-10-07T02:50:23.788Z,1014.86
2022-10-07T02:51:23.752Z,1014.85
2022-10-07T02:52:23.745Z,1014.78
2022-10-07T02:53:23.736Z,1014.77
2022-10-07T02:54:23.738Z,1014.83
2022-10-07T02:55:23.708Z,1014.79
2022-10-07T02:56:23.705Z,1014.81
2022-10-07T02:57:23.701Z,1014.72
2022-10-07T02:58:23.680Z,1014.7
2022-10-07T02:59:23.672Z,1014.72
2022-10-07T03:00:23.663Z,1014.73
2022-10-07T03:01:23.662Z,1014.71
2022-10-07T03:02:23.641Z,1014.74
2022-10-07T03:03:23.629Z,1014.75
2022-10-07T03:04:23.610Z,1014.66
2022-10-07T03:05:23.607Z,1014.69
2022-10-07T03:06:23.610Z,1014.67
2022-10-07T03:07:23.589Z,1014.7
2022-10-07T03:08:23.581Z,1014.7
2022-10-07T03:09:23.577Z,1014.65
2022-10-07T03:10:23.552Z,1014.7
2022-10-07T03:11:23.542Z,1014.69
2022-10-07T03:12:23.534Z,1014.65
2022-10-07T03:13:23.543Z,1014.71
2022-10-07T03:14:23.504Z,1014.61
2022-10-07T03:15:23.503Z,1014.71
2022-10-07T03:16:23.500Z,1014.68
2022-10-07T03:17:23.509Z,1014.67
2022-10-07T03:18:23.484Z,1014.69
2022-10-07T03:19:23.459Z,1014.68
2022-10-07T03:20:23.446Z,1014.73
2022-10-07T03:21:23.435Z,1014.7
2022-10-07T03:22:23.426Z,1014.69
2022-10-07T03:23:23.418Z,1014.68
2022-10-07T03:24:23.414Z,1014.69
2022-10-07T03:25:23.471Z,1014.67
2022-10-07T03:26:23.401Z,1014.66
2022-10-07T03:27:23.377Z,1014.7
2022-10-07T03:28:23.370Z,1014.64
2022-10-07T03:29:23.352Z,1014.59
2022-10-07T03:30:23.356Z,1014.64
2022-10-07T03:31:23.337Z,1014.61
2022-10-07T03:32:23.322Z,1014.58
2022-10-07T03:33:23.310Z,1014.59
2022-10-07T03:34:23.317Z,1014.53
2022-10-07T03:35:23.288Z,1014.55
2022-10-07T03:36:23.283Z,1014.49
2022-10-07T03:37:23.263Z,1014.49
2022-10-07T03:38:23.255Z,1014.51
2022-10-07T03:39:23.240Z,1014.54
2022-10-07T03:40:23.250Z,1014.43
2022-10-07T03:41:23.250Z,1014.45
2022-10-07T03:42:23.237Z,1014.49
2022-10-07T03:43:23.205Z,1014.5
2022-10-07T03:44:23.187Z,1014.49
2022-10-07T03:45:23.188Z,1014.47
2022-10-07T03:46:23.169Z,1014.47
2022-10-07T03:47:23.186Z,1014.5
2022-10-07T03:48:23.206Z,1014.47
2022-10-07T03:49:23.144Z,1014.47
2022-10-07T03:50:23.130Z,1014.41
2022-10-07T03:51:23.122Z,1014.47
2022-10-07T03:52:23.104Z,1014.34
2022-10-07T03:53:23.102Z,1014.42
2022-10-07T03:54:23.100Z,1014.44
2022-10-07T03:55:23.112Z,1014.4
2022-10-07T03:56:23.061Z,1014.39
2022-10-07T03:57:23.066Z,1014.38
2022-10-07T03:58:23.050Z,1014.37
2022-10-07T03:59:23.049Z,1014.38
2022-10-07T04:00:23.019Z,1014.34
2022-10-07T04:01:23.028Z,1014.35
2022-10-07T04:02:23.000Z,1014.32
2022-10-07T04:03:23.007Z,1014.32
2022-10-07T04:04:22.990Z,1014.32
2022-10-07T04:05:23.033Z,1014.27
2022-10-07T04:06:22.987Z,1014.28
2022-10-07T04:07:22.949Z,1014.3
2022-10-07T04:08:22.946Z,1014.29
2022-10-07T04:09:22.931Z,1014.24
2022-10-07T04:10:22.932Z,1014.27
2022-10-07T04:11:22.927Z,1014.27
2022-10-07T04:12:22.898Z,1014.19
2022-10-07T04:13:22.903Z,1014.22
2022-10-07T04:14:22.887Z,1014.23
2022-10-07T04:15:22.876Z,1014.22
2022-10-07T04:16:22.910Z,1014.23
2022-10-07T04:17:22.866Z,1014.21
2022-10-07T04:18:22.902Z,1014.17
2022-10-07T04:19:22.830Z,1014.27
2022-10-07T04:20:22.823Z,1014.19
2022-10-07T04:21:22.851Z,1014.27
2022-10-07T04:22:22.798Z,1014.26
2022-10-07T04:23:22.831Z,1014.21
2022-10-07T04:24:22.802Z,1014.22
2022-10-07T04:25:22.760Z,1014.27
2022-10-07T04:26:22.750Z,1014.21
2022-10-07T04:27:22.744Z,1014.21
2022-10-07T04:28:22.733Z,1014.14
2022-10-07T04:29:22.722Z,1014.15
2022-10-07T04:30:22.725Z,1014.15
2022-10-07T04:31:22.694Z,1014.15
2022-10-07T04:32:22.681Z,1014.16
2022-10-07T04:33:22.694Z,1014.16
2022-10-07T04:34:22.664Z,1014.09
2022-10-07T04:35:22.695Z,1014.12
2022-10-07T04:36:22.640Z,1014.04
2022-10-07T04:37:22.645Z,1014.11
2022-10-07T04:38:22.618Z,1014.09
2022-10-07T04:39:22.606Z,1014.08
2022-10-07T04:40:22.625Z,1014.07
2022-10-07T04:41:22.586Z,1014.07
2022-10-07T04:42:22.573Z,1014.04
2022-10-07T04:43:22.578Z,1014.05
2022-10-07T04:44:22.556Z,1014.03
2022-10-07T04:45:22.548Z,1014.04
2022-10-07T04:46:22.554Z,1014.06
2022-10-07T04:47:22.532Z,1013.99
2022-10-07T04:48:22.522Z,1013.95
2022-10-07T04:49:22.504Z,1014
2022-10-07T04:50:22.487Z,1013.97
2022-10-07T04:51:22.486Z,1014
2022-10-07T04:52:22.494Z,1013.97
2022-10-07T04:53:22.469Z,1013.99
2022-10-07T04:54:22.454Z,1014.02
2022-10-07T04:55:22.436Z,1014.07
2022-10-07T04:56:22.448Z,1013.94
2022-10-07T04:57:22.414Z,1014.02
2022-10-07T04:58:22.405Z,1013.96
2022-10-07T04:59:22.392Z,1013.92
2022-10-07T05:00:31.600Z,1013.93
2022-10-07T05:01:22.381Z,1013.93
2022-10-07T05:02:22.367Z,1013.91
2022-10-07T05:03:22.383Z,1013.9
2022-10-07T05:04:23.335Z,1013.94
2022-10-07T05:05:22.348Z,1013.98
2022-10-07T05:06:22.330Z,1013.95
2022-10-07T05:07:22.314Z,1013.89
2022-10-07T05:08:22.306Z,1013.99
2022-10-07T05:09:22.311Z,1013.92
2022-10-07T05:10:22.298Z,1013.9
2022-10-07T05:11:22.272Z,1013.93
2022-10-07T05:12:22.256Z,1013.9
2022-10-07T05:13:22.246Z,1013.88
2022-10-07T05:14:22.237Z,1013.84
2022-10-07T05:15:22.266Z,1013.85
2022-10-07T05:16:22.404Z,1013.88
2022-10-07T05:17:22.198Z,1013.86
2022-10-07T05:18:22.184Z,1013.88
2022-10-07T05:19:22.176Z,1013.83
2022-10-07T05:20:22.160Z,1013.84
2022-10-07T05:21:22.160Z,1013.85
2022-10-07T05:22:22.146Z,1013.89
2022-10-07T05:23:22.127Z,1013.87
2022-10-07T05:24:22.203Z,1013.81
2022-10-07T05:25:22.105Z,1013.84
2022-10-07T05:26:22.099Z,1013.86
2022-10-07T05:27:22.083Z,1013.86
2022-10-07T05:28:22.103Z,1013.87
2022-10-07T05:29:22.066Z,1013.87
2022-10-07T05:30:22.065Z,1013.87
2022-10-07T05:31:22.843Z,1013.84
2022-10-07T05:32:22.032Z,1013.9
2022-10-07T05:33:22.845Z,1013.86
2022-10-07T05:34:22.016Z,1013.83
2022-10-07T05:35:22.009Z,1013.84
2022-10-07T05:36:22.004Z,1013.8
2022-10-07T05:37:21.985Z,1013.86
2022-10-07T05:38:21.991Z,1013.83
2022-10-07T05:39:21.969Z,1013.78
2022-10-07T05:40:21.942Z,1013.8
2022-10-07T05:41:21.998Z,1013.83
2022-10-07T05:42:21.944Z,1013.78
2022-10-07T05:43:21.947Z,1013.78
2022-10-07T05:44:21.954Z,1013.76
2022-10-07T05:45:21.927Z,1013.73
2022-10-07T05:46:21.955Z,1013.7
2022-10-07T05:47:21.960Z,1013.7
2022-10-07T05:48:21.914Z,1013.75
2022-10-07T05:49:21.847Z,1013.72
2022-10-07T05:50:21.837Z,1013.7
2022-10-07T05:51:21.830Z,1013.71
2022-10-07T05:52:21.821Z,1013.72
2022-10-07T05:53:21.806Z,1013.66
2022-10-07T05:54:21.791Z,1013.7
2022-10-07T05:55:21.790Z,1013.68
2022-10-07T05:56:21.772Z,1013.68
2022-10-07T05:57:21.770Z,1013.68
2022-10-07T05:58:21.756Z,1013.64
2022-10-07T05:59:21.748Z,1013.69
2022-10-07T06:00:21.745Z,1013.71
2022-10-07T06:01:21.757Z,1013.71
2022-10-07T06:02:21.728Z,1013.69
2022-10-07T06:03:21.699Z,1013.66
2022-10-07T06:04:21.687Z,1013.71
2022-10-07T06:05:21.687Z,1013.65
2022-10-07T06:06:21.668Z,1013.71
2022-10-07T06:07:21.661Z,1013.7
2022-10-07T06:08:21.646Z,1013.64
2022-10-07T06:09:21.636Z,1013.62
2022-10-07T06:10:21.624Z,1013.56
2022-10-07T06:11:21.611Z,1013.57
2022-10-07T06:12:21.603Z,1013.57
2022-10-07T06:13:21.592Z,1013.62
2022-10-07T06:14:21.581Z,1013.55
2022-10-07T06:15:21.580Z,1013.56
2022-10-07T06:16:21.559Z,1013.54
2022-10-07T06:17:21.552Z,1013.51
2022-10-07T06:18:21.543Z,1013.57
2022-10-07T06:19:21.525Z,1013.53
2022-10-07T06:20:21.519Z,1013.53
2022-10-07T06:21:21.513Z,1013.49
2022-10-07T06:22:21.498Z,1013.55
2022-10-07T06:23:21.491Z,1013.54
2022-10-07T06:24:21.475Z,1013.54
2022-10-07T06:25:21.464Z,1013.55
2022-10-07T06:26:21.459Z,1013.54
2022-10-07T06:27:21.470Z,1013.5
2022-10-07T06:28:21.431Z,1013.51
2022-10-07T06:29:21.424Z,1013.51
2022-10-07T06:30:21.419Z,1013.54
2022-10-07T06:31:21.432Z,1013.59
2022-10-07T06:32:21.392Z,1013.54
2022-10-07T06:33:21.382Z,1013.57
2022-10-07T06:34:21.372Z,1013.58
2022-10-07T06:35:21.360Z,1013.63
2022-10-07T06:36:21.351Z,1013.56
2022-10-07T06:37:21.339Z,1013.55
2022-10-07T06:38:21.331Z,1013.57
2022-10-07T06:39:21.341Z,1013.61
2022-10-07T06:40:21.312Z,1013.62
2022-10-07T06:41:21.346Z,1013.61
2022-10-07T06:42:21.285Z,1013.58
2022-10-07T06:43:21.278Z,1013.59
2022-10-07T06:44:21.286Z,1013.65
2022-10-07T06:45:21.255Z,1013.52
2022-10-07T06:46:21.244Z,1013.6
2022-10-07T06:47:21.238Z,1013.55
2022-10-07T06:48:21.220Z,1013.56
2022-10-07T06:49:21.216Z,1013.58
2022-10-07T06:50:21.223Z,1013.59
2022-10-07T06:51:21.195Z,1013.59
2022-10-07T06:52:21.193Z,1013.62
2022-10-07T06:53:21.180Z,1013.59
2022-10-07T06:54:21.167Z,1013.57
2022-10-07T06:55:21.159Z,1013.53
2022-10-07T06:56:21.147Z,1013.55
2022-10-07T06:57:21.130Z,1013.51
2022-10-07T06:58:21.121Z,1013.56
2022-10-07T06:59:21.107Z,1013.55
2022-10-07T07:00:21.102Z,1013.5
2022-10-07T07:01:21.090Z,1013.58
2022-10-07T07:02:21.079Z,1013.6
2022-10-07T07:03:21.066Z,1013.56
2022-10-07T07:04:21.054Z,1013.58
2022-10-07T07:05:21.041Z,1013.6
2022-10-07T07:06:21.038Z,1013.62
2022-10-07T07:07:21.035Z,1013.58
2022-10-07T07:08:21.011Z,1013.59
2022-10-07T07:09:20.999Z,1013.57
2022-10-07T07:10:20.987Z,1013.58
2022-10-07T07:11:20.975Z,1013.47
2022-10-07T07:12:20.968Z,1013.51
2022-10-07T07:13:20.964Z,1013.52
2022-10-07T07:14:20.944Z,1013.48
2022-10-07T07:15:20.938Z,1013.49
2022-10-07T07:16:20.923Z,1013.49
2022-10-07T07:17:20.921Z,1013.42
2022-10-07T07:18:20.904Z,1013.46
2022-10-07T07:19:20.895Z,1013.41
2022-10-07T07:20:20.890Z,1013.42
2022-10-07T07:21:20.869Z,1013.35
2022-10-07T07:22:20.858Z,1013.34
2022-10-07T07:23:20.848Z,1013.34
2022-10-07T07:24:20.835Z,1013.36
2022-10-07T07:25:20.826Z,1013.36
2022-10-07T07:26:20.816Z,1013.34
2022-10-07T07:27:20.809Z,1013.41
2022-10-07T07:28:20.794Z,1013.32
2022-10-07T07:29:20.789Z,1013.34
2022-10-07T07:30:20.772Z,1013.37
2022-10-07T07:31:20.761Z,1013.29
2022-10-07T07:32:20.756Z,1013.31
2022-10-07T07:33:20.743Z,1013.36
2022-10-07T07:34:20.738Z,1013.38
2022-10-07T07:35:20.719Z,1013.4
2022-10-07T07:36:20.710Z,1013.35
2022-10-07T07:37:20.724Z,1013.36
2022-10-07T07:38:20.684Z,1013.34
2022-10-07T07:39:20.677Z,1013.32
2022-10-07T07:40:20.666Z,1013.34
2022-10-07T07:41:20.657Z,1013.33
2022-10-07T07:42:20.646Z,1013.26
2022-10-07T07:43:20.642Z,1013.3
2022-10-07T07:44:21.635Z,1013.26
2022-10-07T07:45:20.614Z,1013.25
2022-10-07T07:46:20.603Z,1013.29
2022-10-07T07:47:20.594Z,1013.26
2022-10-07T07:48:20.639Z,1013.28
2022-10-07T07:49:20.577Z,1013.25
2022-10-07T07:50:20.560Z,1013.25
2022-10-07T07:51:20.545Z,1013.25
2022-10-07T07:52:20.540Z,1013.23
2022-10-07T07:53:20.530Z,1013.26
2022-10-07T07:54:20.513Z,1013.19
2022-10-07T07:55:20.511Z,1013.3
2022-10-07T07:56:20.497Z,1013.22
2022-10-07T07:57:20.482Z,1013.25
2022-10-07T07:58:20.472Z,1013.18
2022-10-07T07:59:20.458Z,1013.14
2022-10-07T08:00:20.452Z,1013.11
2022-10-07T08:01:20.439Z,1013.13
2022-10-07T08:02:20.431Z,1013.11
2022-10-07T08:03:20.414Z,1013.09
2022-10-07T08:04:20.409Z,1013.05
2022-10-07T08:05:20.401Z,1013.1
2022-10-07T08:06:20.391Z,1013.02
2022-10-07T08:07:20.391Z,1013.06
2022-10-07T08:08:20.369Z,1013.11
2022-10-07T08:09:20.372Z,1013.08
2022-10-07T08:10:20.342Z,1013.11
2022-10-07T08:11:20.335Z,1013.07
2022-10-07T08:12:20.322Z,1013.02
2022-10-07T08:13:20.326Z,1013
2022-10-07T08:14:20.300Z,1013.07
2022-10-07T08:15:20.333Z,1013.11
2022-10-07T08:16:20.279Z,1013.04
2022-10-07T08:17:20.267Z,1013.08
2022-10-07T08:18:20.265Z,1013.11
2022-10-07T08:19:20.245Z,1013.1
2022-10-07T08:20:20.238Z,1013.17
2022-10-07T08:21:20.224Z,1013.13
2022-10-07T08:22:20.214Z,1013.06
2022-10-07T08:23:20.204Z,1013.14
2022-10-07T08:24:20.193Z,1013.08
2022-10-07T08:25:20.185Z,1013.11
2022-10-07T08:26:20.175Z,1013.08
2022-10-07T08:27:20.168Z,1013.05
2022-10-07T08:28:20.155Z,1013.04
2022-10-07T08:29:20.152Z,1013.09
2022-10-07T08:30:28.790Z,1013.08
2022-10-07T08:31:28.767Z,1013.02
2022-10-07T08:32:20.158Z,1013
2022-10-07T08:33:20.098Z,1013.03
2022-10-07T08:34:20.100Z,1012.99
2022-10-07T08:35:20.083Z,1012.98
2022-10-07T08:36:20.069Z,1013.02
2022-10-07T08:37:20.049Z,1013.02
2022-10-07T08:38:20.053Z,1012.97
2022-10-07T08:39:20.034Z,1013.02
2022-10-07T08:40:20.033Z,1012.96
2022-10-07T08:41:20.009Z,1012.93
2022-10-07T08:42:20.017Z,1012.93
2022-10-07T08:43:20.002Z,1012.92
2022-10-07T08:44:19.977Z,1012.88
2022-10-07T08:45:20.023Z,1012.92
2022-10-07T08:46:19.962Z,1012.86
2022-10-07T08:47:19.958Z,1012.87
2022-10-07T08:48:19.936Z,1012.83
2022-10-07T08:49:19.926Z,1012.87
2022-10-07T08:50:19.911Z,1012.88
2022-10-07T08:51:19.901Z,1012.8
2022-10-07T08:52:19.894Z,1012.8
2022-10-07T08:53:19.896Z,1012.77
2022-10-07T08:54:19.864Z,1012.77
2022-10-07T08:55:19.855Z,1012.73
2022-10-07T08:56:19.854Z,1012.74
2022-10-07T08:57:19.845Z,1012.7
2022-10-07T08:58:19.850Z,1012.67
2022-10-07T08:59:19.813Z,1012.61
2022-10-07T09:00:19.805Z,1012.56
2022-10-07T09:01:19.796Z,1012.56
2022-10-07T09:02:19.784Z,1012.62
2022-10-07T09:03:19.772Z,1012.57
2022-10-07T09:04:19.771Z,1012.58
2022-10-07T09:05:19.758Z,1012.56
2022-10-07T09:06:19.747Z,1012.54
2022-10-07T09:07:19.733Z,1012.53
2022-10-07T09:08:19.719Z,1012.45
2022-10-07T09:09:19.707Z,1012.48
2022-10-07T09:10:19.700Z,1012.49
2022-10-07T09:11:19.747Z,1012.48
2022-10-07T09:12:19.675Z,1012.43
2022-10-07T09:13:19.665Z,1012.42
2022-10-07T09:14:19.652Z,1012.34
2022-10-07T09:15:19.643Z,1012.36
2022-10-07T09:16:19.640Z,1012.31
2022-10-07T09:17:19.633Z,1012.37
2022-10-07T09:18:19.611Z,1012.29
2022-10-07T09:19:19.603Z,1012.32
2022-10-07T09:20:19.594Z,1012.32
2022-10-07T09:21:19.611Z,1012.31
2022-10-07T09:22:19.571Z,1012.28
2022-10-07T09:23:19.591Z,1012.32
2022-10-07T09:24:19.547Z,1012.3
2022-10-07T09:25:19.543Z,1012.34
2022-10-07T09:26:19.541Z,1012.29
2022-10-07T09:27:19.517Z,1012.25
2022-10-07T09:28:19.510Z,1012.23
2022-10-07T09:29:19.497Z,1012.23
2022-10-07T09:30:19.489Z,1012.24
2022-10-07T09:31:19.480Z,1012.25
2022-10-07T09:32:19.472Z,1012.23
2022-10-07T09:33:19.457Z,1012.18
2022-10-07T09:34:19.448Z,1012.26
2022-10-07T09:35:19.429Z,1012.17
2022-10-07T09:36:19.460Z,1012.09
2022-10-07T09:37:19.440Z,1012.18
2022-10-07T09:38:19.442Z,1012.14
2022-10-07T09:39:19.381Z,1012.15
2022-10-07T09:40:19.378Z,1012.14
2022-10-07T09:41:19.361Z,1012.09
2022-10-07T09:42:19.353Z,1012.13
2022-10-07T09:43:19.347Z,1012.1
2022-10-07T09:44:19.335Z,1012.1
2022-10-07T09:45:19.317Z,1012.08
2022-10-07T09:46:19.307Z,1012
2022-10-07T09:47:19.299Z,1012.08
2022-10-07T09:48:19.300Z,1012.09
2022-10-07T09:49:19.274Z,1012.07
2022-10-07T09:50:19.269Z,1012.07
2022-10-07T09:51:19.257Z,1012.09
2022-10-07T09:52:19.240Z,1012.08
2022-10-07T09:53:19.229Z,1012.06
2022-10-07T09:54:19.223Z,1012.11
2022-10-07T09:55:19.206Z,1012.05
2022-10-07T09:56:19.195Z,1012.02
2022-10-07T09:57:19.208Z,1012.06
2022-10-07T09:58:19.205Z,1012.08
2022-10-07T09:59:19.165Z,1012.07
2022-10-07T10:00:19.150Z,1012.05
2022-10-07T10:01:19.151Z,1012.06
2022-10-07T10:02:19.131Z,1011.95
2022-10-07T10:03:19.117Z,1011.95
2022-10-07T10:04:19.106Z,1011.96
2022-10-07T10:05:19.091Z,1011.95
2022-10-07T10:06:19.087Z,1011.98
2022-10-07T10:07:19.088Z,1011.99
2022-10-07T10:08:19.093Z,1011.95
2022-10-07T10:09:19.055Z,1011.91
2022-10-07T10:10:19.042Z,1011.98
2022-10-07T10:11:19.075Z,1011.87
2022-10-07T10:12:19.021Z,1011.93
2022-10-07T10:13:19.033Z,1011.91
2022-10-07T10:14:19.012Z,1011.84
2022-10-07T10:15:18.996Z,1011.88
2022-10-07T10:16:18.992Z,1011.86
2022-10-07T10:17:18.971Z,1011.86
2022-10-07T10:18:18.957Z,1011.88
2022-10-07T10:19:18.947Z,1011.84
2022-10-07T10:20:18.932Z,1011.74
2022-10-07T10:21:18.932Z,1011.69
2022-10-07T10:22:18.913Z,1011.69
2022-10-07T10:23:18.920Z,1011.69
2022-10-07T10:24:18.896Z,1011.72
2022-10-07T10:25:18.885Z,1011.72
2022-10-07T10:26:18.874Z,1011.7
2022-10-07T10:27:18.867Z,1011.66
2022-10-07T10:28:18.851Z,1011.69
2022-10-07T10:29:18.842Z,1011.68
2022-10-07T10:30:18.855Z,1011.62
2022-10-07T10:31:18.823Z,1011.68
2022-10-07T10:32:18.813Z,1011.54
2022-10-07T10:33:18.810Z,1011.61
2022-10-07T10:34:18.788Z,1011.55
2022-10-07T10:35:18.777Z,1011.57
2022-10-07T10:36:18.770Z,1011.49
2022-10-07T10:37:18.768Z,1011.58
2022-10-07T10:38:18.748Z,1011.51
2022-10-07T10:39:18.735Z,1011.52
2022-10-07T10:40:18.720Z,1011.53
2022-10-07T10:41:18.715Z,1011.45
2022-10-07T10:42:18.707Z,1011.48
2022-10-07T10:43:18.696Z,1011.49
2022-10-07T10:44:18.688Z,1011.47
2022-10-07T10:45:18.668Z,1011.39
2022-10-07T10:46:18.663Z,1011.41
2022-10-07T10:47:18.647Z,1011.48
2022-10-07T10:48:18.652Z,1011.56
2022-10-07T10:49:18.635Z,1011.58
2022-10-07T10:50:18.627Z,1011.67
2022-10-07T10:51:18.664Z,1011.65
2022-10-07T10:52:18.633Z,1011.55
2022-10-07T10:53:18.691Z,1011.58
2022-10-07T10:54:18.582Z,1011.56
2022-10-07T10:55:18.566Z,1011.56
2022-10-07T10:56:18.554Z,1011.62
2022-10-07T10:57:18.560Z,1011.56
2022-10-07T10:58:18.534Z,1011.6
2022-10-07T10:59:18.545Z,1011.56
2022-10-07T11:00:18.530Z,1011.51
2022-10-07T11:01:18.500Z,1011.48
2022-10-07T11:02:18.484Z,1011.53
2022-10-07T11:03:18.511Z,1011.45
2022-10-07T11:04:18.467Z,1011.39
2022-10-07T11:05:18.460Z,1011.49
2022-10-07T11:06:18.444Z,1011.52
2022-10-07T11:07:18.655Z,1011.28
2022-10-07T11:08:18.437Z,1011.38
2022-10-07T11:09:18.418Z,1011.36
2022-10-07T11:10:18.404Z,1011.28
2022-10-07T11:11:18.395Z,1011.2
2022-10-07T11:12:18.391Z,1011.33
2022-10-07T11:13:18.422Z,1011.31
2022-10-07T11:14:18.377Z,1011.24
2022-10-07T11:15:18.351Z,1011.27
2022-10-07T11:16:18.340Z,1011.27
2022-10-07T11:17:18.334Z,1011.29
2022-10-07T11:18:18.324Z,1011.24
2022-10-07T11:19:18.316Z,1011.3
2022-10-07T11:20:18.304Z,1011.18
2022-10-07T11:21:18.344Z,1011.22
2022-10-07T11:22:18.280Z,1011.18
2022-10-07T11:23:18.294Z,1011.17
2022-10-07T11:24:18.264Z,1011.21
2022-10-07T11:25:18.247Z,1011.15
2022-10-07T11:26:18.249Z,1011.14
2022-10-07T11:27:18.313Z,1011.09
2022-10-07T11:28:18.220Z,1011.11
2022-10-07T11:29:18.224Z,1011.08
2022-10-07T11:30:18.192Z,1011.1
2022-10-07T11:31:18.199Z,1011.12
2022-10-07T11:32:18.176Z,1011.1
2022-10-07T11:33:18.165Z,1011
2022-10-07T11:34:18.161Z,1011.04
2022-10-07T11:35:18.152Z,1010.82
2022-10-07T11:36:18.140Z,1010.91
2022-10-07T11:37:18.124Z,1011.02
2022-10-07T11:38:18.117Z,1010.54
2022-10-07T11:39:18.112Z,1010.92
2022-10-07T11:40:18.095Z,1010.93
2022-10-07T11:41:18.089Z,1010.45
2022-10-07T11:42:18.073Z,1010.8
2022-10-07T11:43:18.081Z,1010.85
2022-10-07T11:44:18.064Z,1010.87
2022-10-07T11:45:18.044Z,1010.85
2022-10-07T11:46:18.059Z,1010.86
2022-10-07T11:47:18.033Z,1010.87
2022-10-07T11:48:18.019Z,1010.76
2022-10-07T11:49:18.011Z,1010.36
2022-10-07T11:50:18.002Z,1010.75
2022-10-07T11:51:18.004Z,1010.71
2022-10-07T11:52:17.980Z,1010.67
2022-10-07T11:53:17.965Z,1010.68
2022-10-07T11:54:17.955Z,1010.62
2022-10-07T11:55:17.946Z,1010.31
2022-10-07T11:56:17.938Z,1010.57
2022-10-07T11:57:17.922Z,1010.52
2022-10-07T11:58:17.917Z,1010.58
2022-10-07T11:59:17.902Z,1010.6
2022-10-07T12:00:17.905Z,1010.54
2022-10-07T12:01:17.886Z,1010.61
2022-10-07T12:02:17.872Z,1010.48
2022-10-07T12:03:17.864Z,1010.47
2022-10-07T12:04:17.871Z,1010.48
2022-10-07T12:05:17.842Z,1010.48
2022-10-07T12:06:17.831Z,1010.47
2022-10-07T12:07:17.827Z,1010.48
2022-10-07T12:08:17.810Z,1010.42